createdAt,value
2022-11-30T00:01:17.311Z,50.80
2022-11-30T00:03:44.986Z,59.43
2022-11-30T00:06:14.999Z,52.03
2022-11-30T00:08:42.841Z,43.27
2022-11-30T00:11:15.056Z,51.57
2022-11-30T00:13:42.303Z,51.37
2022-11-30T00:16:09.772Z,53.20
2022-11-30T00:18:37.607Z,54.00
2022-11-30T00:21:08.763Z,48.30
2022-11-30T00:23:41.708Z,46.80
2022-11-30T00:26:12.242Z,52.50
2022-11-30T00:28:40.394Z,46.20
2022-11-30T00:31:11.168Z,53.73
2022-11-30T00:33:39.027Z,53.13
2022-11-30T00:36:08.813Z,57.70
2022-11-30T00:38:36.115Z,50.93
2022-11-30T00:41:03.500Z,58.77
2022-11-30T00:43:31.382Z,58.17
2022-11-30T00:45:58.972Z,58.77
2022-11-30T00:48:26.664Z,56.93
2022-11-30T00:50:53.892Z,60.10
2022-11-30T00:53:21.732Z,55.67
2022-11-30T00:55:49.207Z,60.00
2022-11-30T00:58:17.193Z,58.80
2022-11-30T01:00:44.658Z,52.07
2022-11-30T01:03:12.350Z,58.40
2022-11-30T01:05:39.837Z,60.50
2022-11-30T01:08:09.202Z,66.37
2022-11-30T01:10:38.123Z,51.43
2022-11-30T01:13:05.816Z,62.90
2022-11-30T01:15:40.882Z,61.67
2022-11-30T01:18:08.188Z,69.40
2022-11-30T01:20:35.470Z,56.80
2022-11-30T01:23:02.741Z,67.40
2022-11-30T01:25:29.902Z,73.70
2022-11-30T01:27:57.094Z,70.00
2022-11-30T01:30:24.327Z,75.60
2022-11-30T01:32:51.580Z,58.17
2022-11-30T01:35:18.757Z,54.67
2022-11-30T01:37:45.996Z,67.80
2022-11-30T01:40:14.185Z,59.40
2022-11-30T01:42:47.225Z,69.00
2022-11-30T01:45:14.993Z,67.13
2022-11-30T01:47:51.063Z,76.80
2022-11-30T01:50:32.125Z,65.23
2022-11-30T01:52:59.745Z,69.27
2022-11-30T01:55:35.129Z,68.73
2022-11-30T01:58:07.042Z,65.87
2022-11-30T02:00:34.279Z,60.00
2022-11-30T02:03:31.543Z,65.53
2022-11-30T02:06:00.396Z,59.27
2022-11-30T02:08:28.667Z,72.20
2022-11-30T02:11:00.031Z,70.40
2022-11-30T02:13:51.437Z,78.10
2022-11-30T02:16:36.594Z,68.17
2022-11-30T02:19:16.283Z,79.53
2022-11-30T02:22:05.249Z,66.00
2022-11-30T02:24:35.448Z,72.17
2022-11-30T02:27:24.300Z,85.70
2022-11-30T02:30:23.044Z,63.13
2022-11-30T02:32:59.591Z,69.60
2022-11-30T02:35:30.297Z,69.77
2022-11-30T02:37:59.327Z,72.90
2022-11-30T02:40:27.054Z,72.90
2022-11-30T02:42:57.677Z,58.73
2022-11-30T02:45:52.001Z,66.87
2022-11-30T02:48:40.543Z,62.80
2022-11-30T02:51:10.613Z,58.20
2022-11-30T02:53:38.246Z,62.50
2022-11-30T02:56:05.686Z,68.17
2022-11-30T02:58:33.140Z,51.43
2022-11-30T03:01:00.397Z,62.07
2022-11-30T03:03:27.608Z,64.33
2022-11-30T03:05:54.849Z,53.33
2022-11-30T03:08:22.227Z,66.20
2022-11-30T03:10:49.573Z,55.83
2022-11-30T03:13:16.855Z,60.87
2022-11-30T03:15:44.194Z,64.17
2022-11-30T03:18:11.519Z,68.00
2022-11-30T03:20:42.658Z,58.00
2022-11-30T03:23:10.459Z,68.80
2022-11-30T03:25:37.791Z,70.20
2022-11-30T03:28:05.165Z,69.53
2022-11-30T03:30:32.574Z,68.87
2022-11-30T03:32:59.786Z,59.17
2022-11-30T03:35:27.043Z,70.87
2022-11-30T03:37:54.313Z,62.60
2022-11-30T03:40:21.522Z,55.40
2022-11-30T03:42:48.700Z,66.33
2022-11-30T03:45:16.025Z,69.30
2022-11-30T03:47:43.656Z,60.70
2022-11-30T03:50:11.155Z,64.57
2022-11-30T03:52:38.355Z,72.63
2022-11-30T03:55:06.084Z,76.00
2022-11-30T03:57:33.421Z,72.63
2022-11-30T04:00:00.600Z,74.73
2022-11-30T04:02:27.923Z,69.37
2022-11-30T04:04:55.202Z,87.00
2022-11-30T04:07:22.625Z,80.20
2022-11-30T04:09:49.773Z,78.57
2022-11-30T04:12:17.217Z,70.97
2022-11-30T04:14:44.670Z,86.13
2022-11-30T04:17:12.287Z,68.22
2022-11-30T04:19:39.462Z,82.03
2022-11-30T04:22:06.697Z,74.13
2022-11-30T04:24:33.914Z,70.13
2022-11-30T04:27:01.180Z,78.60
2022-11-30T04:29:28.436Z,90.20
2022-11-30T04:31:55.637Z,90.23
2022-11-30T04:34:23.301Z,79.50
2022-11-30T04:36:50.604Z,76.40
2022-11-30T04:39:17.815Z,77.07
2022-11-30T04:41:45.022Z,80.60
2022-11-30T04:44:12.197Z,82.10
2022-11-30T04:46:39.519Z,79.73
2022-11-30T04:49:06.773Z,93.43
2022-11-30T04:51:33.967Z,78.97
2022-11-30T04:54:01.141Z,78.00
2022-11-30T04:56:28.362Z,81.80
2022-11-30T04:58:55.568Z,77.17
2022-11-30T05:01:22.832Z,81.60
2022-11-30T05:03:50.100Z,70.67
2022-11-30T05:06:17.333Z,68.60
2022-11-30T05:08:44.531Z,64.77
2022-11-30T05:11:11.994Z,61.93
2022-11-30T05:13:39.270Z,64.67
2022-11-30T05:16:06.790Z,64.57
2022-11-30T05:18:34.097Z,62.93
2022-11-30T05:21:01.498Z,64.43
2022-11-30T05:23:28.749Z,53.07
2022-11-30T05:25:56.018Z,61.03
2022-11-30T05:28:23.304Z,53.00
2022-11-30T05:30:50.497Z,55.97
2022-11-30T05:33:17.712Z,53.07
2022-11-30T05:35:45.048Z,59.33
2022-11-30T05:38:12.338Z,55.90
2022-11-30T05:40:39.561Z,61.10
2022-11-30T05:43:06.835Z,57.35
2022-11-30T05:45:34.043Z,64.00
2022-11-30T05:48:01.309Z,68.87
2022-11-30T05:50:28.523Z,64.22
2022-11-30T05:53:00.757Z,62.07
2022-11-30T05:55:29.548Z,65.93
2022-11-30T05:57:56.805Z,70.60
2022-11-30T06:00:24.099Z,70.67
2022-11-30T06:03:00.402Z,70.93
2022-11-30T06:05:28.172Z,67.63
2022-11-30T06:07:56.047Z,78.73
2022-11-30T06:10:25.673Z,71.63
2022-11-30T06:12:53.046Z,78.70
2022-11-30T06:15:20.228Z,70.57
2022-11-30T06:17:47.485Z,65.57
2022-11-30T06:20:14.754Z,61.47
2022-11-30T06:22:46.409Z,65.28
2022-11-30T06:25:14.863Z,55.40
2022-11-30T06:27:43.589Z,55.17
2022-11-30T06:30:13.050Z,57.93
2022-11-30T06:32:40.337Z,55.27
2022-11-30T06:35:07.908Z,59.43
2022-11-30T06:37:35.827Z,47.97
2022-11-30T06:40:06.991Z,54.10
2022-11-30T06:42:36.201Z,43.93
2022-11-30T06:45:04.518Z,47.27
2022-11-30T06:47:31.834Z,50.87
2022-11-30T06:49:59.060Z,45.33
2022-11-30T06:52:26.345Z,41.87
2022-11-30T06:54:53.603Z,42.13
2022-11-30T06:57:21.387Z,44.93
2022-11-30T06:59:48.902Z,40.37
2022-11-30T07:02:18.568Z,40.90
2022-11-30T07:04:46.882Z,37.03
2022-11-30T07:07:14.749Z,39.57
2022-11-30T07:09:42.143Z,40.07
2022-11-30T07:12:09.531Z,36.43
2022-11-30T07:14:36.888Z,37.93
2022-11-30T07:17:04.739Z,39.67
2022-11-30T07:19:34.414Z,37.73
2022-11-30T07:22:02.204Z,39.90
2022-11-30T07:24:48.452Z,39.70
2022-11-30T07:27:15.892Z,39.57
2022-11-30T07:29:43.160Z,42.13
2022-11-30T07:32:10.738Z,34.07
2022-11-30T07:34:38.092Z,35.47
2022-11-30T07:37:05.344Z,35.57
2022-11-30T07:39:32.532Z,34.20
2022-11-30T07:41:59.781Z,33.17
2022-11-30T07:44:27.449Z,35.60
2022-11-30T07:46:54.682Z,31.27
2022-11-30T07:49:21.845Z,32.83
2022-11-30T07:51:49.018Z,31.03
2022-11-30T07:54:16.224Z,32.60
2022-11-30T07:56:43.524Z,31.50
2022-11-30T07:59:10.848Z,29.67
2022-11-30T08:01:38.514Z,28.27
2022-11-30T08:04:06.009Z,37.10
2022-11-30T08:06:33.461Z,29.23
2022-11-30T08:09:03.065Z,29.63
2022-11-30T08:11:32.702Z,32.13
2022-11-30T08:14:00.696Z,28.27
2022-11-30T08:16:30.594Z,29.30
2022-11-30T08:18:58.331Z,29.03
2022-11-30T08:21:26.151Z,28.93
2022-11-30T08:23:57.094Z,29.77
2022-11-30T08:26:27.491Z,33.53
2022-11-30T08:28:55.619Z,28.70
2022-11-30T08:31:24.373Z,33.43
2022-11-30T08:33:56.095Z,28.70
2022-11-30T08:36:24.627Z,29.60
2022-11-30T08:38:52.248Z,29.07
2022-11-30T08:41:21.908Z,36.17
2022-11-30T08:43:50.435Z,30.97
2022-11-30T08:46:50.876Z,29.23
2022-11-30T08:54:46.047Z,32.07
2022-11-30T08:57:18.817Z,36.50
2022-11-30T08:59:47.148Z,34.30
2022-11-30T09:02:19.548Z,34.10
2022-11-30T09:04:49.287Z,34.13
2022-11-30T09:07:16.994Z,39.47
2022-11-30T09:09:44.234Z,33.50
2022-11-30T09:12:11.510Z,36.23
2022-11-30T09:14:38.783Z,32.63
2022-11-30T09:17:06.138Z,34.93
2022-11-30T09:19:33.498Z,30.73
2022-11-30T09:22:00.726Z,29.60
2022-11-30T09:24:27.960Z,39.22
2022-11-30T09:26:56.941Z,38.47
2022-11-30T09:29:24.570Z,37.53
2022-11-30T09:31:51.774Z,30.43
2022-11-30T09:34:19.020Z,33.80
2022-11-30T09:36:46.288Z,35.77
2022-11-30T09:39:13.642Z,35.27
2022-11-30T09:41:49.375Z,33.97
2022-11-30T09:44:32.324Z,36.83
2022-11-30T09:47:04.264Z,35.27
2022-11-30T09:49:39.481Z,38.13
2022-11-30T09:52:17.168Z,38.03
2022-11-30T09:54:46.116Z,38.67
2022-11-30T09:57:34.756Z,37.67
2022-11-30T10:00:06.445Z,38.43
2022-11-30T10:02:39.925Z,36.00
2022-11-30T10:05:16.142Z,39.50
2022-11-30T10:08:05.331Z,33.80
2022-11-30T10:10:43.313Z,36.90
2022-11-30T10:13:27.277Z,38.97
2022-11-30T10:16:04.568Z,41.27
2022-11-30T10:18:52.793Z,37.30
2022-11-30T10:21:40.312Z,44.33
2022-11-30T10:24:53.385Z,40.27
2022-11-30T10:27:38.883Z,43.40
2022-11-30T10:30:16.954Z,35.93
2022-11-30T10:32:48.379Z,36.57
2022-11-30T10:35:41.342Z,36.20
2022-11-30T10:38:33.066Z,37.67
2022-11-30T10:41:23.972Z,38.73
2022-11-30T10:44:01.341Z,38.97
2022-11-30T10:46:33.025Z,35.23
2022-11-30T10:49:08.011Z,44.20
2022-11-30T10:51:40.089Z,47.53
2022-11-30T10:54:19.204Z,45.23
2022-11-30T10:56:47.002Z,44.30
2022-11-30T10:59:37.116Z,45.53
2022-11-30T11:02:36.340Z,45.73
2022-11-30T11:05:25.084Z,46.50
2022-11-30T11:08:06.199Z,47.80
2022-11-30T11:10:40.480Z,44.33
2022-11-30T11:13:16.412Z,44.90
2022-11-30T11:15:58.665Z,45.97
2022-11-30T11:18:31.114Z,44.53
2022-11-30T11:21:16.291Z,49.10
2022-11-30T11:23:45.054Z,53.70
2022-11-30T11:26:27.363Z,52.73
2022-11-30T11:28:59.419Z,54.63
2022-11-30T11:31:42.744Z,51.40
2022-11-30T11:34:26.508Z,51.27
2022-11-30T11:37:20.169Z,54.33
2022-11-30T11:40:14.913Z,47.27
2022-11-30T11:42:53.710Z,50.27
2022-11-30T11:45:27.656Z,50.27
2022-11-30T11:48:02.008Z,51.87
2022-11-30T11:53:23.907Z,51.97
2022-11-30T11:55:59.151Z,54.05
2022-11-30T11:58:56.002Z,55.70
2022-11-30T12:01:47.523Z,59.83
2022-11-30T12:04:31.297Z,51.60
2022-11-30T12:07:02.242Z,48.17
2022-11-30T12:09:35.006Z,51.03
2022-11-30T12:12:02.701Z,51.30
2022-11-30T12:14:33.765Z,54.63
2022-11-30T12:17:16.781Z,61.27
2022-11-30T12:20:07.172Z,57.50
2022-11-30T12:23:08.345Z,63.63
2022-11-30T12:25:53.290Z,54.27
2022-11-30T12:28:59.902Z,62.87
2022-11-30T12:31:48.846Z,65.30
2022-11-30T12:34:28.515Z,61.63
2022-11-30T12:37:28.546Z,62.23
2022-11-30T12:40:20.220Z,64.97
2022-11-30T12:43:01.522Z,65.20
2022-11-30T12:45:43.085Z,62.40
2022-11-30T12:48:38.989Z,60.33
2022-11-30T12:51:29.591Z,60.40
2022-11-30T12:54:34.665Z,59.87
2022-11-30T12:57:15.926Z,64.07
2022-11-30T13:00:01.773Z,54.57
2022-11-30T13:02:40.984Z,57.80
2022-11-30T13:05:12.704Z,55.43
2022-11-30T13:07:43.563Z,61.63
2022-11-30T13:10:39.736Z,65.50
2022-11-30T13:13:15.029Z,60.67
2022-11-30T13:15:44.371Z,56.80
2022-11-30T13:18:17.852Z,57.43
2022-11-30T13:21:06.404Z,56.83
2022-11-30T13:23:42.518Z,59.53
2022-11-30T13:26:39.062Z,56.83
2022-11-30T13:29:39.931Z,65.27
2022-11-30T13:32:41.093Z,55.77
2022-11-30T13:35:29.861Z,65.93
2022-11-30T13:38:36.774Z,54.77
2022-11-30T13:41:07.516Z,56.23
2022-11-30T13:43:55.039Z,59.13
2022-11-30T13:46:24.060Z,62.70
2022-11-30T13:49:10.609Z,57.20
2022-11-30T13:51:39.886Z,51.03
2022-11-30T13:54:37.233Z,51.90
2022-11-30T13:57:40.284Z,53.60
2022-11-30T14:00:29.970Z,44.63
2022-11-30T14:06:52.990Z,53.80
2022-11-30T14:09:41.799Z,41.03
2022-11-30T14:12:34.788Z,47.87
2022-11-30T14:15:22.489Z,49.23
2022-11-30T14:17:52.010Z,55.37
2022-11-30T14:20:20.001Z,48.50
2022-11-30T14:22:47.883Z,48.63
2022-11-30T14:25:17.410Z,45.63
2022-11-30T14:27:45.528Z,46.37
2022-11-30T14:30:21.317Z,42.77
2022-11-30T14:33:04.240Z,47.67
2022-11-30T14:35:33.150Z,45.13
2022-11-30T14:38:00.807Z,119.10
2022-11-30T14:40:30.622Z,70.00
2022-11-30T14:43:01.556Z,49.87
2022-11-30T14:45:31.689Z,39.83
2022-11-30T14:48:12.054Z,44.73
2022-11-30T14:51:03.165Z,44.10
2022-11-30T14:53:40.212Z,42.57
2022-11-30T14:56:32.453Z,45.00
2022-11-30T14:59:24.766Z,42.53
2022-11-30T15:02:01.542Z,45.10
2022-11-30T15:04:30.476Z,50.40
2022-11-30T15:06:58.293Z,43.67
2022-11-30T15:09:31.426Z,39.57
2022-11-30T15:11:59.140Z,41.60
2022-11-30T15:14:26.493Z,43.13
2022-11-30T15:16:57.960Z,42.93
2022-11-30T15:19:32.055Z,42.10
2022-11-30T15:21:59.757Z,42.93
2022-11-30T15:24:29.393Z,39.83
2022-11-30T15:27:14.115Z,46.73
2022-11-30T15:29:50.304Z,42.10
2022-11-30T15:32:23.093Z,41.20
2022-11-30T15:35:00.758Z,40.17
2022-11-30T15:37:34.113Z,42.20
2022-11-30T15:40:04.271Z,38.50
2022-11-30T15:42:40.128Z,44.30
2022-11-30T15:45:21.801Z,43.40
2022-11-30T15:47:49.880Z,46.77
2022-11-30T15:50:38.458Z,45.23
2022-11-30T15:53:20.893Z,48.77
2022-11-30T15:56:14.775Z,49.63
2022-11-30T15:58:58.813Z,44.37
2022-11-30T16:01:26.417Z,44.67
2022-11-30T16:03:57.956Z,40.93
2022-11-30T16:06:32.031Z,48.67
2022-11-30T16:09:17.616Z,51.87
2022-11-30T16:11:45.038Z,47.80
2022-11-30T16:14:16.819Z,46.10
2022-11-30T16:16:44.706Z,44.37
2022-11-30T16:19:11.967Z,49.87
2022-11-30T16:21:39.584Z,42.13
2022-11-30T16:24:06.901Z,49.17
2022-11-30T16:27:03.805Z,48.03
2022-11-30T16:29:21.433Z,39.13
2022-11-30T16:31:49.168Z,43.33
2022-11-30T16:34:16.605Z,46.70
2022-11-30T16:36:44.269Z,41.43
2022-11-30T16:39:12.767Z,40.70
2022-11-30T16:41:40.003Z,44.63
2022-11-30T16:44:13.159Z,41.10
2022-11-30T16:46:40.387Z,43.20
2022-11-30T16:49:07.567Z,47.13
2022-11-30T16:51:36.128Z,43.13
2022-11-30T16:54:03.794Z,44.33
2022-11-30T16:56:31.161Z,39.83
2022-11-30T16:58:58.491Z,38.67
2022-11-30T17:01:35.882Z,40.77
2022-11-30T17:04:22.854Z,35.63
2022-11-30T17:06:53.698Z,40.00
2022-11-30T17:09:23.274Z,36.37
2022-11-30T17:11:51.254Z,37.77
2022-11-30T17:14:19.735Z,36.07
2022-11-30T17:16:47.010Z,35.97
2022-11-30T17:19:14.333Z,33.43
2022-11-30T17:21:44.447Z,36.67
2022-11-30T17:24:12.380Z,35.43
2022-11-30T17:26:40.003Z,33.83
2022-11-30T17:29:07.258Z,33.83
2022-11-30T17:31:34.622Z,37.63
2022-11-30T17:34:01.847Z,37.15
2022-11-30T17:36:29.435Z,36.40
2022-11-30T17:38:56.797Z,32.50
2022-11-30T17:41:24.171Z,34.30
2022-11-30T17:43:52.159Z,34.30
2022-11-30T17:46:21.025Z,32.97
2022-11-30T17:48:49.777Z,34.37
2022-11-30T17:51:17.126Z,29.10
2022-11-30T17:53:44.615Z,32.57
2022-11-30T17:56:15.119Z,34.63
2022-11-30T17:58:44.683Z,28.93
2022-11-30T18:01:17.442Z,34.20
2022-11-30T18:03:45.570Z,32.37
2022-11-30T18:06:13.727Z,34.23
2022-11-30T18:08:41.244Z,32.17
2022-11-30T18:11:17.190Z,35.57
2022-11-30T18:13:44.517Z,35.33
2022-11-30T18:16:13.320Z,35.57
2022-11-30T18:18:47.072Z,33.47
2022-11-30T18:21:17.649Z,29.47
2022-11-30T18:23:45.204Z,36.53
2022-11-30T18:26:15.052Z,35.67
2022-11-30T18:28:45.501Z,34.47
2022-11-30T18:31:15.382Z,36.13
2022-11-30T18:33:42.587Z,34.97
2022-11-30T18:36:10.172Z,34.20
2022-11-30T18:38:38.854Z,34.70
2022-11-30T18:41:06.740Z,30.00
2022-11-30T18:43:34.535Z,31.37
2022-11-30T18:46:07.647Z,32.90
2022-11-30T18:48:36.185Z,31.50
2022-11-30T18:51:15.433Z,30.30
2022-11-30T18:53:43.009Z,29.80
2022-11-30T18:56:21.022Z,31.73
2022-11-30T18:58:48.791Z,28.20
2022-11-30T19:01:18.917Z,28.53
2022-11-30T19:03:54.867Z,24.63
2022-11-30T19:06:24.653Z,29.57
2022-11-30T19:08:52.017Z,22.30
2022-11-30T19:11:19.978Z,31.23
2022-11-30T19:13:47.322Z,25.37
2022-11-30T19:16:16.480Z,25.93
2022-11-30T19:18:46.826Z,28.07
2022-11-30T19:21:16.452Z,27.57
2022-11-30T19:23:44.382Z,28.37
2022-11-30T19:26:12.063Z,23.03
2022-11-30T19:28:40.317Z,26.50
2022-11-30T19:31:26.968Z,27.37
2022-11-30T19:33:55.737Z,27.90
2022-11-30T19:36:28.025Z,27.13
2022-11-30T19:38:56.713Z,28.07
2022-11-30T19:41:24.188Z,29.33
2022-11-30T19:44:03.204Z,26.97
2022-11-30T19:46:32.926Z,25.43
2022-11-30T19:49:01.969Z,24.80
2022-11-30T19:51:30.611Z,28.10
2022-11-30T19:54:01.339Z,26.90
2022-11-30T19:56:31.352Z,28.77
2022-11-30T19:59:04.660Z,23.83
2022-11-30T20:01:33.919Z,28.80
2022-11-30T20:04:01.972Z,26.67
2022-11-30T20:06:32.027Z,28.33
2022-11-30T20:08:59.462Z,27.57
2022-11-30T20:11:26.799Z,28.20
2022-11-30T20:13:54.088Z,26.50
2022-11-30T20:16:22.817Z,25.17
2022-11-30T20:19:00.767Z,30.23
2022-11-30T20:21:30.732Z,23.67
2022-11-30T20:24:00.412Z,25.33
2022-11-30T20:26:30.490Z,23.38
2022-11-30T20:28:59.769Z,30.08
2022-11-30T20:31:29.174Z,25.37
2022-11-30T20:33:56.441Z,25.42
2022-11-30T20:36:23.709Z,22.17
2022-11-30T20:38:51.469Z,23.10
2022-11-30T20:41:21.442Z,24.48
2022-11-30T20:43:49.022Z,22.47
2022-11-30T20:46:31.340Z,21.47
2022-11-30T20:48:59.290Z,23.00
2022-11-30T20:51:31.160Z,20.00
2022-11-30T20:54:06.608Z,21.70
2022-11-30T20:56:36.805Z,22.03
2022-11-30T20:59:06.463Z,20.53
2022-11-30T21:01:34.176Z,23.90
2022-11-30T21:04:01.739Z,27.03
2022-11-30T21:06:30.242Z,21.50
2022-11-30T21:08:58.514Z,18.07
2022-11-30T21:11:29.329Z,21.83
2022-11-30T21:13:57.878Z,23.37
2022-11-30T21:16:28.896Z,19.93
2022-11-30T21:18:58.955Z,20.67
2022-11-30T21:21:30.370Z,19.47
2022-11-30T21:24:00.510Z,23.00
2022-11-30T21:26:33.890Z,19.13
2022-11-30T21:29:04.224Z,20.90
2022-11-30T21:31:31.916Z,19.17
2022-11-30T21:33:59.898Z,16.87
2022-11-30T21:36:27.908Z,20.03
2022-11-30T21:39:05.572Z,17.17
2022-11-30T21:41:35.869Z,20.50
2022-11-30T21:44:04.032Z,19.13
2022-11-30T21:46:32.343Z,18.40
2022-11-30T21:48:59.777Z,16.40
2022-11-30T21:51:28.637Z,19.30
2022-11-30T21:53:58.142Z,20.10
2022-11-30T21:56:31.558Z,18.47
2022-11-30T21:58:59.435Z,19.50
2022-11-30T22:01:38.397Z,19.37
2022-11-30T22:04:07.424Z,17.97
2022-11-30T22:06:36.318Z,18.93
2022-11-30T22:09:09.225Z,20.73
2022-11-30T22:11:41.879Z,19.60
2022-11-30T22:14:16.757Z,19.10
2022-11-30T22:16:44.621Z,16.90
2022-11-30T22:19:11.829Z,17.97
2022-11-30T22:21:39.564Z,20.27
2022-11-30T22:24:09.816Z,17.17
2022-11-30T22:26:42.413Z,15.67
2022-11-30T22:29:15.970Z,17.90
2022-11-30T22:31:45.432Z,19.23
2022-11-30T22:34:13.194Z,20.27
2022-11-30T22:36:42.082Z,18.80
2022-11-30T22:39:14.707Z,19.27
2022-11-30T22:41:43.160Z,23.97
2022-11-30T22:44:13.755Z,18.20
2022-11-30T22:46:41.927Z,21.83
2022-11-30T22:49:15.792Z,17.50
2022-11-30T22:51:46.201Z,19.87
2022-11-30T22:54:13.400Z,20.33
2022-11-30T22:56:41.517Z,18.93
2022-11-30T22:59:11.455Z,17.47
2022-11-30T23:01:43.000Z,18.53
2022-11-30T23:04:12.987Z,18.77
2022-11-30T23:06:42.169Z,19.63
2022-11-30T23:09:13.538Z,17.70
2022-11-30T23:11:40.933Z,19.23
2022-11-30T23:14:09.559Z,17.40
2022-11-30T23:16:37.371Z,19.37
2022-11-30T23:19:05.377Z,20.03
2022-11-30T23:21:40.592Z,17.70
2022-11-30T23:24:13.199Z,18.33
2022-11-30T23:26:41.545Z,20.57
2022-11-30T23:29:11.948Z,19.57
2022-11-30T23:31:41.220Z,13.40
2022-11-30T23:34:11.297Z,16.10
2022-11-30T23:36:38.636Z,15.50
2022-11-30T23:39:09.313Z,18.87
2022-11-30T23:41:37.586Z,19.10
2022-11-30T23:44:05.079Z,15.07
2022-11-30T23:46:32.355Z,15.97
2022-11-30T23:48:59.655Z,15.97
2022-11-30T23:51:27.210Z,15.87
2022-11-30T23:53:54.785Z,14.93
2022-11-30T23:56:23.692Z,13.63
2022-11-30T23:58:51.575Z,13.90
